sensor_id;sensor_type;location;lat;lon;timestamp;P1;durP1;ratioP1;P2;durP2;ratioP2
48189;SDS011;33980;47.436;18.926;2022-08-25T00:00:14;6.47;;;3.28;;
48189;SDS011;33980;47.436;18.926;2022-08-25T00:02:44;6.43;;;2.33;;
48189;SDS011;33980;47.436;18.926;2022-08-25T00:05:25;5.43;;;2.78;;
48189;SDS011;33980;47.436;18.926;2022-08-25T00:07:58;4.55;;;2.17;;
48189;SDS011;33980;47.436;18.926;2022-08-25T00:10:29;4.93;;;2.03;;
48189;SDS011;33980;47.436;18.926;2022-08-25T00:12:58;4.55;;;2.10;;
48189;SDS011;33980;47.436;18.926;2022-08-25T00:15:27;4.72;;;2.10;;
48189;SDS011;33980;47.436;18.926;2022-08-25T00:17:57;5.28;;;2.28;;
48189;SDS011;33980;47.436;18.926;2022-08-25T00:20:27;5.87;;;2.47;;
48189;SDS011;33980;47.436;18.926;2022-08-25T00:22:57;4.37;;;2.12;;
48189;SDS011;33980;47.436;18.926;2022-08-25T00:25:25;5.10;;;2.72;;
48189;SDS011;33980;47.436;18.926;2022-08-25T00:27:56;6.60;;;2.50;;
48189;SDS011;33980;47.436;18.926;2022-08-25T00:30:25;4.60;;;2.28;;
48189;SDS011;33980;47.436;18.926;2022-08-25T00:32:54;4.15;;;2.28;;
48189;SDS011;33980;47.436;18.926;2022-08-25T00:35:24;4.87;;;2.47;;
48189;SDS011;33980;47.436;18.926;2022-08-25T00:37:53;3.47;;;1.98;;
48189;SDS011;33980;47.436;18.926;2022-08-25T00:40:23;7.75;;;2.47;;
48189;SDS011;33980;47.436;18.926;2022-08-25T00:42:54;3.78;;;2.25;;
48189;SDS011;33980;47.436;18.926;2022-08-25T00:45:24;6.28;;;2.62;;
48189;SDS011;33980;47.436;18.926;2022-08-25T00:47:53;6.45;;;2.72;;
48189;SDS011;33980;47.436;18.926;2022-08-25T00:50:26;5.65;;;2.47;;
48189;SDS011;33980;47.436;18.926;2022-08-25T00:52:55;5.90;;;2.12;;
48189;SDS011;33980;47.436;18.926;2022-08-25T00:55:27;4.47;;;2.50;;
48189;SDS011;33980;47.436;18.926;2022-08-25T00:57:59;9.90;;;3.40;;
48189;SDS011;33980;47.436;18.926;2022-08-25T01:00:34;5.32;;;2.83;;
48189;SDS011;33980;47.436;18.926;2022-08-25T01:03:05;7.32;;;2.20;;
48189;SDS011;33980;47.436;18.926;2022-08-25T01:05:34;6.72;;;2.85;;
48189;SDS011;33980;47.436;18.926;2022-08-25T01:08:04;5.70;;;2.83;;
48189;SDS011;33980;47.436;18.926;2022-08-25T01:10:37;6.10;;;2.53;;
48189;SDS011;33980;47.436;18.926;2022-08-25T01:15:43;5.68;;;2.65;;
48189;SDS011;33980;47.436;18.926;2022-08-25T01:18:12;6.37;;;2.50;;
48189;SDS011;33980;47.436;18.926;2022-08-25T01:20:41;4.72;;;2.33;;
48189;SDS011;33980;47.436;18.926;2022-08-25T01:23:12;6.20;;;2.92;;
48189;SDS011;33980;47.436;18.926;2022-08-25T01:25:42;5.87;;;2.87;;
48189;SDS011;33980;47.436;18.926;2022-08-25T01:28:15;5.53;;;2.67;;
48189;SDS011;33980;47.436;18.926;2022-08-25T01:30:44;6.00;;;2.70;;
48189;SDS011;33980;47.436;18.926;2022-08-25T01:33:13;4.47;;;2.40;;
48189;SDS011;33980;47.436;18.926;2022-08-25T01:35:43;8.20;;;3.08;;
48189;SDS011;33980;47.436;18.926;2022-08-25T01:38:14;6.78;;;3.17;;
48189;SDS011;33980;47.436;18.926;2022-08-25T01:43:15;7.72;;;3.03;;
48189;SDS011;33980;47.436;18.926;2022-08-25T01:45:49;5.72;;;2.37;;
48189;SDS011;33980;47.436;18.926;2022-08-25T01:48:18;4.60;;;2.33;;
48189;SDS011;33980;47.436;18.926;2022-08-25T01:50:46;5.37;;;2.00;;
48189;SDS011;33980;47.436;18.926;2022-08-25T01:53:18;5.75;;;3.22;;
48189;SDS011;33980;47.436;18.926;2022-08-25T01:55:50;5.28;;;2.08;;
48189;SDS011;33980;47.436;18.926;2022-08-25T01:58:22;4.22;;;2.22;;
48189;SDS011;33980;47.436;18.926;2022-08-25T02:00:53;5.32;;;2.50;;
48189;SDS011;33980;47.436;18.926;2022-08-25T02:05:52;7.82;;;3.40;;
48189;SDS011;33980;47.436;18.926;2022-08-25T02:08:23;5.07;;;2.22;;
48189;SDS011;33980;47.436;18.926;2022-08-25T02:10:55;6.97;;;3.97;;
48189;SDS011;33980;47.436;18.926;2022-08-25T02:13:24;6.10;;;2.35;;
48189;SDS011;33980;47.436;18.926;2022-08-25T02:15:58;4.87;;;2.33;;
48189;SDS011;33980;47.436;18.926;2022-08-25T02:18:28;7.53;;;2.78;;
48189;SDS011;33980;47.436;18.926;2022-08-25T02:20:57;5.40;;;2.30;;
48189;SDS011;33980;47.436;18.926;2022-08-25T02:23:27;5.97;;;2.62;;
48189;SDS011;33980;47.436;18.926;2022-08-25T02:25:55;5.45;;;2.72;;
48189;SDS011;33980;47.436;18.926;2022-08-25T02:28:24;6.18;;;2.47;;
48189;SDS011;33980;47.436;18.926;2022-08-25T02:30:53;7.50;;;2.60;;
48189;SDS011;33980;47.436;18.926;2022-08-25T02:33:27;11.55;;;3.10;;
48189;SDS011;33980;47.436;18.926;2022-08-25T02:35:57;5.12;;;2.50;;
48189;SDS011;33980;47.436;18.926;2022-08-25T02:38:28;5.43;;;2.55;;
48189;SDS011;33980;47.436;18.926;2022-08-25T02:40:57;7.28;;;3.05;;
48189;SDS011;33980;47.436;18.926;2022-08-25T02:43:27;7.28;;;2.83;;
48189;SDS011;33980;47.436;18.926;2022-08-25T02:45:56;5.25;;;2.60;;
48189;SDS011;33980;47.436;18.926;2022-08-25T02:48:25;4.82;;;2.35;;
48189;SDS011;33980;47.436;18.926;2022-08-25T02:50:54;5.20;;;2.45;;
48189;SDS011;33980;47.436;18.926;2022-08-25T02:53:28;6.43;;;3.22;;
48189;SDS011;33980;47.436;18.926;2022-08-25T02:55:57;4.55;;;2.42;;
48189;SDS011;33980;47.436;18.926;2022-08-25T02:58:26;8.18;;;2.60;;
48189;SDS011;33980;47.436;18.926;2022-08-25T03:00:55;4.95;;;2.80;;
48189;SDS011;33980;47.436;18.926;2022-08-25T03:03:26;4.75;;;2.40;;
48189;SDS011;33980;47.436;18.926;2022-08-25T03:05:55;4.87;;;2.30;;
48189;SDS011;33980;47.436;18.926;2022-08-25T03:08:24;5.85;;;2.80;;
48189;SDS011;33980;47.436;18.926;2022-08-25T03:10:54;5.30;;;2.60;;
48189;SDS011;33980;47.436;18.926;2022-08-25T03:13:23;4.30;;;2.30;;
48189;SDS011;33980;47.436;18.926;2022-08-25T03:15:52;5.15;;;2.60;;
48189;SDS011;33980;47.436;18.926;2022-08-25T03:18:22;5.03;;;2.75;;
48189;SDS011;33980;47.436;18.926;2022-08-25T03:20:51;7.20;;;2.70;;
48189;SDS011;33980;47.436;18.926;2022-08-25T03:23:20;5.60;;;2.72;;
48189;SDS011;33980;47.436;18.926;2022-08-25T03:25:48;4.60;;;2.33;;
48189;SDS011;33980;47.436;18.926;2022-08-25T03:28:36;5.68;;;3.17;;
48189;SDS011;33980;47.436;18.926;2022-08-25T03:31:06;7.40;;;2.72;;
48189;SDS011;33980;47.436;18.926;2022-08-25T03:33:35;6.75;;;3.08;;
48189;SDS011;33980;47.436;18.926;2022-08-25T03:36:05;4.87;;;3.05;;
48189;SDS011;33980;47.436;18.926;2022-08-25T03:38:34;4.65;;;2.25;;
48189;SDS011;33980;47.436;18.926;2022-08-25T03:41:14;6.70;;;3.03;;
48189;SDS011;33980;47.436;18.926;2022-08-25T03:43:44;9.88;;;3.05;;
48189;SDS011;33980;47.436;18.926;2022-08-25T03:46:16;7.78;;;3.40;;
48189;SDS011;33980;47.436;18.926;2022-08-25T03:48:46;5.40;;;2.83;;
48189;SDS011;33980;47.436;18.926;2022-08-25T03:51:19;8.18;;;2.90;;
48189;SDS011;33980;47.436;18.926;2022-08-25T03:53:48;4.95;;;2.53;;
48189;SDS011;33980;47.436;18.926;2022-08-25T03:56:18;6.53;;;2.65;;
48189;SDS011;33980;47.436;18.926;2022-08-25T03:58:48;4.60;;;2.60;;
48189;SDS011;33980;47.436;18.926;2022-08-25T04:01:17;6.60;;;2.97;;
48189;SDS011;33980;47.436;18.926;2022-08-25T04:03:46;5.80;;;3.10;;
48189;SDS011;33980;47.436;18.926;2022-08-25T04:06:16;6.40;;;2.97;;
48189;SDS011;33980;47.436;18.926;2022-08-25T04:08:46;7.03;;;3.35;;
48189;SDS011;33980;47.436;18.926;2022-08-25T04:11:17;9.63;;;4.00;;
48189;SDS011;33980;47.436;18.926;2022-08-25T04:13:49;6.20;;;3.00;;
48189;SDS011;33980;47.436;18.926;2022-08-25T04:16:20;5.05;;;2.78;;
48189;SDS011;33980;47.436;18.926;2022-08-25T04:18:50;6.37;;;2.90;;
48189;SDS011;33980;47.436;18.926;2022-08-25T04:21:20;5.07;;;3.12;;
48189;SDS011;33980;47.436;18.926;2022-08-25T04:23:50;5.97;;;3.10;;
48189;SDS011;33980;47.436;18.926;2022-08-25T04:26:20;7.50;;;2.87;;
48189;SDS011;33980;47.436;18.926;2022-08-25T04:28:52;6.28;;;3.28;;
48189;SDS011;33980;47.436;18.926;2022-08-25T04:31:21;6.85;;;3.42;;
48189;SDS011;33980;47.436;18.926;2022-08-25T04:33:50;6.10;;;3.50;;
48189;SDS011;33980;47.436;18.926;2022-08-25T04:36:19;7.03;;;3.20;;
48189;SDS011;33980;47.436;18.926;2022-08-25T04:38:48;8.05;;;3.35;;
48189;SDS011;33980;47.436;18.926;2022-08-25T04:41:18;6.18;;;3.25;;
48189;SDS011;33980;47.436;18.926;2022-08-25T04:43:51;6.60;;;3.08;;
48189;SDS011;33980;47.436;18.926;2022-08-25T04:46:22;5.50;;;3.08;;
48189;SDS011;33980;47.436;18.926;2022-08-25T04:48:53;7.05;;;3.53;;
48189;SDS011;33980;47.436;18.926;2022-08-25T04:51:26;6.97;;;3.30;;
48189;SDS011;33980;47.436;18.926;2022-08-25T04:53:57;5.20;;;2.97;;
48189;SDS011;33980;47.436;18.926;2022-08-25T04:56:28;5.97;;;3.15;;
48189;SDS011;33980;47.436;18.926;2022-08-25T04:59:00;4.80;;;2.53;;
48189;SDS011;33980;47.436;18.926;2022-08-25T05:01:30;6.70;;;2.90;;
48189;SDS011;33980;47.436;18.926;2022-08-25T05:04:00;8.40;;;3.22;;
48189;SDS011;33980;47.436;18.926;2022-08-25T05:06:30;5.93;;;2.95;;
48189;SDS011;33980;47.436;18.926;2022-08-25T05:08:59;6.20;;;3.20;;
48189;SDS011;33980;47.436;18.926;2022-08-25T05:11:31;6.47;;;2.92;;
48189;SDS011;33980;47.436;18.926;2022-08-25T05:14:02;13.18;;;3.50;;
48189;SDS011;33980;47.436;18.926;2022-08-25T05:16:32;9.00;;;3.85;;
48189;SDS011;33980;47.436;18.926;2022-08-25T05:19:01;5.50;;;2.67;;
48189;SDS011;33980;47.436;18.926;2022-08-25T05:21:30;6.57;;;2.87;;
48189;SDS011;33980;47.436;18.926;2022-08-25T05:24:00;7.32;;;3.37;;
48189;SDS011;33980;47.436;18.926;2022-08-25T05:26:30;6.15;;;3.22;;
48189;SDS011;33980;47.436;18.926;2022-08-25T05:29:00;20.83;;;3.83;;
48189;SDS011;33980;47.436;18.926;2022-08-25T05:31:31;7.20;;;3.83;;
48189;SDS011;33980;47.436;18.926;2022-08-25T05:34:08;6.35;;;3.58;;
48189;SDS011;33980;47.436;18.926;2022-08-25T05:36:38;8.23;;;3.37;;
48189;SDS011;33980;47.436;18.926;2022-08-25T05:39:09;8.20;;;3.15;;
48189;SDS011;33980;47.436;18.926;2022-08-25T05:41:38;7.30;;;2.97;;
48189;SDS011;33980;47.436;18.926;2022-08-25T05:44:11;4.97;;;2.42;;
48189;SDS011;33980;47.436;18.926;2022-08-25T05:46:47;6.55;;;3.35;;
48189;SDS011;33980;47.436;18.926;2022-08-25T05:49:17;7.10;;;3.58;;
48189;SDS011;33980;47.436;18.926;2022-08-25T05:51:46;5.25;;;2.67;;
48189;SDS011;33980;47.436;18.926;2022-08-25T05:54:14;5.18;;;2.85;;
48189;SDS011;33980;47.436;18.926;2022-08-25T05:56:43;5.32;;;2.55;;
48189;SDS011;33980;47.436;18.926;2022-08-25T05:59:13;5.30;;;2.50;;
48189;SDS011;33980;47.436;18.926;2022-08-25T06:01:42;6.10;;;3.37;;
48189;SDS011;33980;47.436;18.926;2022-08-25T06:04:29;7.22;;;2.95;;
48189;SDS011;33980;47.436;18.926;2022-08-25T06:06:58;6.85;;;3.03;;
48189;SDS011;33980;47.436;18.926;2022-08-25T06:09:27;7.60;;;3.42;;
48189;SDS011;33980;47.436;18.926;2022-08-25T06:11:56;6.53;;;3.22;;
48189;SDS011;33980;47.436;18.926;2022-08-25T06:14:26;5.50;;;2.42;;
48189;SDS011;33980;47.436;18.926;2022-08-25T06:16:54;7.43;;;2.95;;
48189;SDS011;33980;47.436;18.926;2022-08-25T06:19:23;7.95;;;2.87;;
48189;SDS011;33980;47.436;18.926;2022-08-25T06:21:53;7.07;;;3.12;;
48189;SDS011;33980;47.436;18.926;2022-08-25T06:24:22;9.53;;;2.77;;
48189;SDS011;33980;47.436;18.926;2022-08-25T06:26:52;7.55;;;3.20;;
48189;SDS011;33980;47.436;18.926;2022-08-25T06:29:20;4.82;;;2.42;;
48189;SDS011;33980;47.436;18.926;2022-08-25T06:31:51;6.18;;;3.33;;
48189;SDS011;33980;47.436;18.926;2022-08-25T06:34:20;5.50;;;2.75;;
48189;SDS011;33980;47.436;18.926;2022-08-25T06:36:53;4.35;;;2.10;;
48189;SDS011;33980;47.436;18.926;2022-08-25T06:39:22;6.32;;;2.83;;
48189;SDS011;33980;47.436;18.926;2022-08-25T06:41:51;4.90;;;1.85;;
48189;SDS011;33980;47.436;18.926;2022-08-25T06:44:20;7.28;;;2.78;;
48189;SDS011;33980;47.436;18.926;2022-08-25T06:46:49;4.90;;;2.15;;
48189;SDS011;33980;47.436;18.926;2022-08-25T06:49:20;6.45;;;2.30;;
48189;SDS011;33980;47.436;18.926;2022-08-25T06:51:49;3.92;;;2.20;;
48189;SDS011;33980;47.436;18.926;2022-08-25T06:54:17;8.52;;;2.40;;
48189;SDS011;33980;47.436;18.926;2022-08-25T06:56:46;5.15;;;2.45;;
48189;SDS011;33980;47.436;18.926;2022-08-25T06:59:16;5.20;;;2.33;;
48189;SDS011;33980;47.436;18.926;2022-08-25T07:01:44;5.12;;;2.30;;
48189;SDS011;33980;47.436;18.926;2022-08-25T07:04:16;4.37;;;2.00;;
48189;SDS011;33980;47.436;18.926;2022-08-25T07:06:46;5.15;;;2.42;;
48189;SDS011;33980;47.436;18.926;2022-08-25T07:09:15;4.40;;;2.03;;
48189;SDS011;33980;47.436;18.926;2022-08-25T07:11:44;8.65;;;2.62;;
48189;SDS011;33980;47.436;18.926;2022-08-25T07:14:14;5.32;;;2.45;;
48189;SDS011;33980;47.436;18.926;2022-08-25T07:16:43;5.80;;;2.63;;
48189;SDS011;33980;47.436;18.926;2022-08-25T07:19:17;5.28;;;2.50;;
48189;SDS011;33980;47.436;18.926;2022-08-25T07:21:51;4.75;;;1.85;;
48189;SDS011;33980;47.436;18.926;2022-08-25T07:24:21;6.12;;;2.20;;
48189;SDS011;33980;47.436;18.926;2022-08-25T07:26:50;7.12;;;3.22;;
48189;SDS011;33980;47.436;18.926;2022-08-25T07:29:20;9.77;;;3.12;;
48189;SDS011;33980;47.436;18.926;2022-08-25T07:31:59;3.47;;;1.85;;
48189;SDS011;33980;47.436;18.926;2022-08-25T07:34:28;8.55;;;2.62;;
48189;SDS011;33980;47.436;18.926;2022-08-25T07:37:39;7.07;;;3.30;;
48189;SDS011;33980;47.436;18.926;2022-08-25T07:40:17;5.77;;;2.80;;
48189;SDS011;33980;47.436;18.926;2022-08-25T07:42:50;7.75;;;2.50;;
48189;SDS011;33980;47.436;18.926;2022-08-25T07:45:23;5.30;;;2.45;;
48189;SDS011;33980;47.436;18.926;2022-08-25T07:48:00;4.32;;;1.90;;
48189;SDS011;33980;47.436;18.926;2022-08-25T07:50:29;4.53;;;2.20;;
48189;SDS011;33980;47.436;18.926;2022-08-25T07:53:01;2.55;;;1.62;;
48189;SDS011;33980;47.436;18.926;2022-08-25T07:55:30;5.12;;;2.25;;
48189;SDS011;33980;47.436;18.926;2022-08-25T07:57:58;5.05;;;1.90;;
48189;SDS011;33980;47.436;18.926;2022-08-25T08:00:28;10.20;;;1.95;;
48189;SDS011;33980;47.436;18.926;2022-08-25T08:02:59;4.82;;;1.90;;
48189;SDS011;33980;47.436;18.926;2022-08-25T08:05:30;6.78;;;1.87;;
48189;SDS011;33980;47.436;18.926;2022-08-25T08:07:58;5.68;;;1.73;;
48189;SDS011;33980;47.436;18.926;2022-08-25T08:13:18;2.60;;;1.40;;
48189;SDS011;33980;47.436;18.926;2022-08-25T08:15:47;3.95;;;1.67;;
48189;SDS011;33980;47.436;18.926;2022-08-25T08:18:16;3.62;;;1.33;;
48189;SDS011;33980;47.436;18.926;2022-08-25T08:20:45;6.62;;;1.62;;
48189;SDS011;33980;47.436;18.926;2022-08-25T08:23:16;3.27;;;1.47;;
48189;SDS011;33980;47.436;18.926;2022-08-25T08:25:45;3.83;;;1.35;;
48189;SDS011;33980;47.436;18.926;2022-08-25T08:28:14;8.77;;;1.98;;
48189;SDS011;33980;47.436;18.926;2022-08-25T08:30:43;3.17;;;1.12;;
48189;SDS011;33980;47.436;18.926;2022-08-25T08:33:21;3.30;;;1.25;;
48189;SDS011;33980;47.436;18.926;2022-08-25T08:35:56;5.18;;;2.83;;
48189;SDS011;33980;47.436;18.926;2022-08-25T08:38:33;3.50;;;1.50;;
48189;SDS011;33980;47.436;18.926;2022-08-25T08:41:05;1.83;;;0.90;;
48189;SDS011;33980;47.436;18.926;2022-08-25T08:44:07;4.93;;;1.37;;
48189;SDS011;33980;47.436;18.926;2022-08-25T08:46:42;5.20;;;1.95;;
48189;SDS011;33980;47.436;18.926;2022-08-25T08:49:14;2.95;;;1.20;;
48189;SDS011;33980;47.436;18.926;2022-08-25T08:51:55;2.87;;;1.45;;
48189;SDS011;33980;47.436;18.926;2022-08-25T08:54:30;5.03;;;1.95;;
48189;SDS011;33980;47.436;18.926;2022-08-25T08:57:03;2.60;;;1.15;;
48189;SDS011;33980;47.436;18.926;2022-08-25T08:59:39;2.25;;;1.15;;
48189;SDS011;33980;47.436;18.926;2022-08-25T09:02:18;2.12;;;1.20;;
48189;SDS011;33980;47.436;18.926;2022-08-25T09:05:11;5.78;;;2.25;;
48189;SDS011;33980;47.436;18.926;2022-08-25T09:07:43;2.33;;;1.12;;
48189;SDS011;33980;47.436;18.926;2022-08-25T09:10:16;3.47;;;1.83;;
48189;SDS011;33980;47.436;18.926;2022-08-25T09:12:52;2.45;;;1.45;;
48189;SDS011;33980;47.436;18.926;2022-08-25T09:15:27;5.03;;;1.15;;
48189;SDS011;33980;47.436;18.926;2022-08-25T09:18:22;4.78;;;1.52;;
48189;SDS011;33980;47.436;18.926;2022-08-25T09:21:02;2.78;;;1.20;;
48189;SDS011;33980;47.436;18.926;2022-08-25T09:23:38;5.65;;;1.70;;
48189;SDS011;33980;47.436;18.926;2022-08-25T09:26:19;4.12;;;1.12;;
48189;SDS011;33980;47.436;18.926;2022-08-25T09:28:53;2.58;;;1.10;;
48189;SDS011;33980;47.436;18.926;2022-08-25T09:31:33;3.12;;;1.23;;
48189;SDS011;33980;47.436;18.926;2022-08-25T09:34:15;2.95;;;1.12;;
48189;SDS011;33980;47.436;18.926;2022-08-25T09:36:47;4.07;;;1.45;;
48189;SDS011;33980;47.436;18.926;2022-08-25T09:39:19;4.93;;;1.80;;
48189;SDS011;33980;47.436;18.926;2022-08-25T09:41:51;6.85;;;2.95;;
48189;SDS011;33980;47.436;18.926;2022-08-25T09:44:23;4.37;;;2.00;;
48189;SDS011;33980;47.436;18.926;2022-08-25T09:49:36;2.92;;;1.30;;
48189;SDS011;33980;47.436;18.926;2022-08-25T09:52:23;2.33;;;1.20;;
48189;SDS011;33980;47.436;18.926;2022-08-25T09:55:22;2.97;;;1.27;;
48189;SDS011;33980;47.436;18.926;2022-08-25T09:57:56;3.22;;;1.30;;
48189;SDS011;33980;47.436;18.926;2022-08-25T10:00:26;2.65;;;1.83;;
48189;SDS011;33980;47.436;18.926;2022-08-25T10:03:02;3.35;;;1.35;;
48189;SDS011;33980;47.436;18.926;2022-08-25T10:05:34;3.20;;;1.65;;
48189;SDS011;33980;47.436;18.926;2022-08-25T10:08:24;2.28;;;1.08;;
48189;SDS011;33980;47.436;18.926;2022-08-25T10:10:58;2.10;;;0.90;;
48189;SDS011;33980;47.436;18.926;2022-08-25T10:16:03;6.40;;;1.10;;
48189;SDS011;33980;47.436;18.926;2022-08-25T10:18:54;3.20;;;1.40;;
48189;SDS011;33980;47.436;18.926;2022-08-25T10:21:28;3.65;;;1.02;;
48189;SDS011;33980;47.436;18.926;2022-08-25T10:23:57;3.85;;;1.80;;
48189;SDS011;33980;47.436;18.926;2022-08-25T10:26:31;2.25;;;1.05;;
48189;SDS011;33980;47.436;18.926;2022-08-25T10:29:08;2.15;;;1.27;;
48189;SDS011;33980;47.436;18.926;2022-08-25T10:31:44;3.47;;;1.80;;
48189;SDS011;33980;47.436;18.926;2022-08-25T10:34:19;4.03;;;1.25;;
48189;SDS011;33980;47.436;18.926;2022-08-25T10:37:02;2.35;;;1.10;;
48189;SDS011;33980;47.436;18.926;2022-08-25T10:39:39;4.10;;;1.10;;
48189;SDS011;33980;47.436;18.926;2022-08-25T10:42:15;3.65;;;1.50;;
48189;SDS011;33980;47.436;18.926;2022-08-25T10:44:58;2.62;;;1.17;;
48189;SDS011;33980;47.436;18.926;2022-08-25T10:47:56;3.40;;;1.45;;
48189;SDS011;33980;47.436;18.926;2022-08-25T10:50:49;2.75;;;1.17;;
48189;SDS011;33980;47.436;18.926;2022-08-25T10:53:24;3.42;;;1.05;;
48189;SDS011;33980;47.436;18.926;2022-08-25T10:55:59;4.22;;;1.95;;
48189;SDS011;33980;47.436;18.926;2022-08-25T10:58:47;3.25;;;1.37;;
48189;SDS011;33980;47.436;18.926;2022-08-25T11:01:33;3.10;;;2.03;;
48189;SDS011;33980;47.436;18.926;2022-08-25T11:04:11;2.97;;;1.48;;
48189;SDS011;33980;47.436;18.926;2022-08-25T11:06:42;7.70;;;1.50;;
48189;SDS011;33980;47.436;18.926;2022-08-25T11:09:22;5.55;;;1.50;;
48189;SDS011;33980;47.436;18.926;2022-08-25T11:11:54;2.08;;;0.95;;
48189;SDS011;33980;47.436;18.926;2022-08-25T11:14:27;2.17;;;1.10;;
48189;SDS011;33980;47.436;18.926;2022-08-25T11:17:03;2.55;;;1.35;;
48189;SDS011;33980;47.436;18.926;2022-08-25T11:19:35;2.75;;;1.12;;
48189;SDS011;33980;47.436;18.926;2022-08-25T11:22:06;3.40;;;1.02;;
48189;SDS011;33980;47.436;18.926;2022-08-25T11:24:43;3.78;;;1.55;;
48189;SDS011;33980;47.436;18.926;2022-08-25T11:27:22;2.85;;;1.60;;
48189;SDS011;33980;47.436;18.926;2022-08-25T11:29:54;3.05;;;1.15;;
48189;SDS011;33980;47.436;18.926;2022-08-25T11:32:29;2.87;;;1.37;;
48189;SDS011;33980;47.436;18.926;2022-08-25T11:35:03;1.95;;;1.05;;
48189;SDS011;33980;47.436;18.926;2022-08-25T11:37:34;3.35;;;1.20;;
48189;SDS011;33980;47.436;18.926;2022-08-25T11:40:25;3.15;;;1.40;;
48189;SDS011;33980;47.436;18.926;2022-08-25T11:43:23;2.58;;;1.23;;
48189;SDS011;33980;47.436;18.926;2022-08-25T11:48:59;5.35;;;1.67;;
48189;SDS011;33980;47.436;18.926;2022-08-25T11:51:34;3.67;;;1.25;;
48189;SDS011;33980;47.436;18.926;2022-08-25T11:54:14;4.45;;;1.87;;
48189;SDS011;33980;47.436;18.926;2022-08-25T11:56:53;3.10;;;1.15;;
48189;SDS011;33980;47.436;18.926;2022-08-25T12:02:34;1.55;;;0.77;;
48189;SDS011;33980;47.436;18.926;2022-08-25T12:05:07;3.05;;;1.30;;
48189;SDS011;33980;47.436;18.926;2022-08-25T12:07:58;3.30;;;1.42;;
48189;SDS011;33980;47.436;18.926;2022-08-25T12:13:26;3.85;;;1.60;;
48189;SDS011;33980;47.436;18.926;2022-08-25T12:16:08;2.87;;;1.17;;
48189;SDS011;33980;47.436;18.926;2022-08-25T12:19:26;3.20;;;1.10;;
48189;SDS011;33980;47.436;18.926;2022-08-25T12:22:37;4.47;;;1.60;;
48189;SDS011;33980;47.436;18.926;2022-08-25T12:25:06;1.90;;;1.20;;
48189;SDS011;33980;47.436;18.926;2022-08-25T12:27:39;3.10;;;0.98;;
48189;SDS011;33980;47.436;18.926;2022-08-25T12:30:12;3.00;;;1.20;;
48189;SDS011;33980;47.436;18.926;2022-08-25T12:32:55;2.95;;;1.33;;
48189;SDS011;33980;47.436;18.926;2022-08-25T12:35:32;2.37;;;0.90;;
48189;SDS011;33980;47.436;18.926;2022-08-25T12:38:09;5.72;;;2.20;;
48189;SDS011;33980;47.436;18.926;2022-08-25T12:40:52;3.42;;;1.40;;
48189;SDS011;33980;47.436;18.926;2022-08-25T12:43:24;3.35;;;1.00;;
48189;SDS011;33980;47.436;18.926;2022-08-25T12:49:02;1.87;;;1.05;;
48189;SDS011;33980;47.436;18.926;2022-08-25T12:51:47;3.10;;;1.17;;
48189;SDS011;33980;47.436;18.926;2022-08-25T12:54:24;2.40;;;1.30;;
48189;SDS011;33980;47.436;18.926;2022-08-25T12:57:00;3.90;;;2.08;;
48189;SDS011;33980;47.436;18.926;2022-08-25T12:59:34;3.65;;;1.27;;
48189;SDS011;33980;47.436;18.926;2022-08-25T13:02:22;2.78;;;1.20;;
48189;SDS011;33980;47.436;18.926;2022-08-25T13:05:32;3.75;;;1.27;;
48189;SDS011;33980;47.436;18.926;2022-08-25T13:08:25;3.47;;;1.02;;
48189;SDS011;33980;47.436;18.926;2022-08-25T13:11:06;3.95;;;1.33;;
48189;SDS011;33980;47.436;18.926;2022-08-25T13:13:42;2.37;;;1.42;;
48189;SDS011;33980;47.436;18.926;2022-08-25T13:16:15;2.58;;;1.02;;
48189;SDS011;33980;47.436;18.926;2022-08-25T13:18:45;4.03;;;1.25;;
48189;SDS011;33980;47.436;18.926;2022-08-25T13:21:18;2.65;;;1.15;;
48189;SDS011;33980;47.436;18.926;2022-08-25T13:23:52;5.43;;;1.20;;
48189;SDS011;33980;47.436;18.926;2022-08-25T13:26:32;3.53;;;1.20;;
48189;SDS011;33980;47.436;18.926;2022-08-25T13:29:10;3.67;;;1.17;;
48189;SDS011;33980;47.436;18.926;2022-08-25T13:31:51;2.83;;;1.33;;
48189;SDS011;33980;47.436;18.926;2022-08-25T13:34:23;2.33;;;1.00;;
48189;SDS011;33980;47.436;18.926;2022-08-25T13:37:04;2.87;;;1.10;;
48189;SDS011;33980;47.436;18.926;2022-08-25T13:42:38;3.05;;;1.25;;
48189;SDS011;33980;47.436;18.926;2022-08-25T13:45:11;2.00;;;1.02;;
48189;SDS011;33980;47.436;18.926;2022-08-25T13:47:42;2.12;;;1.10;;
48189;SDS011;33980;47.436;18.926;2022-08-25T13:52:53;2.90;;;1.10;;
48189;SDS011;33980;47.436;18.926;2022-08-25T13:55:27;3.03;;;1.15;;
48189;SDS011;33980;47.436;18.926;2022-08-25T13:58:18;3.78;;;1.60;;
48189;SDS011;33980;47.436;18.926;2022-08-25T14:01:05;3.72;;;1.62;;
48189;SDS011;33980;47.436;18.926;2022-08-25T14:04:06;1.35;;;0.93;;
48189;SDS011;33980;47.436;18.926;2022-08-25T14:07:04;5.57;;;1.62;;
48189;SDS011;33980;47.436;18.926;2022-08-25T14:09:44;4.90;;;1.75;;
48189;SDS011;33980;47.436;18.926;2022-08-25T14:12:34;7.65;;;1.40;;
48189;SDS011;33980;47.436;18.926;2022-08-25T14:15:08;3.70;;;1.65;;
48189;SDS011;33980;47.436;18.926;2022-08-25T14:17:40;2.62;;;1.17;;
48189;SDS011;33980;47.436;18.926;2022-08-25T14:20:20;2.35;;;1.08;;
48189;SDS011;33980;47.436;18.926;2022-08-25T14:22:53;2.70;;;1.00;;
48189;SDS011;33980;47.436;18.926;2022-08-25T14:25:26;3.35;;;1.65;;
48189;SDS011;33980;47.436;18.926;2022-08-25T14:27:57;1.48;;;0.85;;
48189;SDS011;33980;47.436;18.926;2022-08-25T14:30:43;3.03;;;1.25;;
48189;SDS011;33980;47.436;18.926;2022-08-25T14:33:18;2.12;;;1.10;;
48189;SDS011;33980;47.436;18.926;2022-08-25T14:35:51;2.55;;;1.05;;
48189;SDS011;33980;47.436;18.926;2022-08-25T14:38:21;5.00;;;1.92;;
48189;SDS011;33980;47.436;18.926;2022-08-25T14:40:50;2.17;;;1.30;;
48189;SDS011;33980;47.436;18.926;2022-08-25T14:43:20;2.67;;;1.17;;
48189;SDS011;33980;47.436;18.926;2022-08-25T14:45:58;4.40;;;1.65;;
48189;SDS011;33980;47.436;18.926;2022-08-25T14:48:29;3.47;;;1.50;;
48189;SDS011;33980;47.436;18.926;2022-08-25T14:51:02;3.17;;;1.25;;
48189;SDS011;33980;47.436;18.926;2022-08-25T14:53:31;4.35;;;1.25;;
48189;SDS011;33980;47.436;18.926;2022-08-25T14:56:00;2.50;;;1.30;;
48189;SDS011;33980;47.436;18.926;2022-08-25T14:58:35;3.08;;;1.37;;
48189;SDS011;33980;47.436;18.926;2022-08-25T15:01:18;2.05;;;1.12;;
48189;SDS011;33980;47.436;18.926;2022-08-25T15:03:56;3.75;;;1.83;;
48189;SDS011;33980;47.436;18.926;2022-08-25T15:06:30;2.22;;;1.25;;
48189;SDS011;33980;47.436;18.926;2022-08-25T15:08:59;3.03;;;1.70;;
48189;SDS011;33980;47.436;18.926;2022-08-25T15:11:38;8.98;;;2.35;;
48189;SDS011;33980;47.436;18.926;2022-08-25T15:14:08;7.28;;;1.62;;
48189;SDS011;33980;47.436;18.926;2022-08-25T15:19:09;3.42;;;1.30;;
48189;SDS011;33980;47.436;18.926;2022-08-25T15:21:44;2.60;;;1.50;;
48189;SDS011;33980;47.436;18.926;2022-08-25T15:24:13;3.17;;;1.45;;
48189;SDS011;33980;47.436;18.926;2022-08-25T15:26:45;5.57;;;1.35;;
48189;SDS011;33980;47.436;18.926;2022-08-25T15:29:23;5.30;;;2.20;;
48189;SDS011;33980;47.436;18.926;2022-08-25T15:31:54;2.58;;;1.02;;
48189;SDS011;33980;47.436;18.926;2022-08-25T15:34:23;5.00;;;1.75;;
48189;SDS011;33980;47.436;18.926;2022-08-25T15:36:53;3.60;;;1.02;;
48189;SDS011;33980;47.436;18.926;2022-08-25T15:39:22;4.15;;;1.08;;
48189;SDS011;33980;47.436;18.926;2022-08-25T15:41:51;3.87;;;1.55;;
48189;SDS011;33980;47.436;18.926;2022-08-25T15:44:20;4.10;;;1.40;;
48189;SDS011;33980;47.436;18.926;2022-08-25T15:46:56;3.15;;;1.10;;